sensor_id;sensor_type;location;lat;lon;timestamp;P1;durP1;ratioP1;P2;durP2;ratioP2
17451;SDS011;8843;48.838;9.324;2022-12-07T00:00:53;7.93;;;4.90;;
17451;SDS011;8843;48.838;9.324;2022-12-07T00:03:19;6.40;;;4.50;;
17451;SDS011;8843;48.838;9.324;2022-12-07T00:05:46;6.93;;;5.53;;
17451;SDS011;8843;48.838;9.324;2022-12-07T00:08:13;6.77;;;6.07;;
17451;SDS011;8843;48.838;9.324;2022-12-07T00:10:40;8.50;;;5.43;;
17451;SDS011;8843;48.838;9.324;2022-12-07T00:13:07;6.37;;;5.40;;
17451;SDS011;8843;48.838;9.324;2022-12-07T00:15:35;5.57;;;4.63;;
17451;SDS011;8843;48.838;9.324;2022-12-07T00:18:02;7.60;;;5.67;;
17451;SDS011;8843;48.838;9.324;2022-12-07T00:20:29;6.73;;;4.93;;
17451;SDS011;8843;48.838;9.324;2022-12-07T00:22:56;6.03;;;4.67;;
17451;SDS011;8843;48.838;9.324;2022-12-07T00:25:23;7.03;;;4.80;;
17451;SDS011;8843;48.838;9.324;2022-12-07T00:27:51;6.10;;;5.10;;
17451;SDS011;8843;48.838;9.324;2022-12-07T00:30:20;7.37;;;5.20;;
17451;SDS011;8843;48.838;9.324;2022-12-07T00:32:49;7.23;;;5.03;;
17451;SDS011;8843;48.838;9.324;2022-12-07T00:35:16;5.67;;;4.40;;
17451;SDS011;8843;48.838;9.324;2022-12-07T00:37:43;5.30;;;4.73;;
17451;SDS011;8843;48.838;9.324;2022-12-07T00:40:10;6.80;;;5.40;;
17451;SDS011;8843;48.838;9.324;2022-12-07T00:42:37;7.03;;;5.60;;
17451;SDS011;8843;48.838;9.324;2022-12-07T00:45:04;6.50;;;4.97;;
17451;SDS011;8843;48.838;9.324;2022-12-07T00:47:32;6.10;;;5.00;;
17451;SDS011;8843;48.838;9.324;2022-12-07T00:50:00;6.30;;;4.83;;
17451;SDS011;8843;48.838;9.324;2022-12-07T00:52:27;6.37;;;5.20;;
17451;SDS011;8843;48.838;9.324;2022-12-07T00:54:54;6.60;;;5.93;;
17451;SDS011;8843;48.838;9.324;2022-12-07T00:57:21;6.87;;;5.17;;
17451;SDS011;8843;48.838;9.324;2022-12-07T00:59:48;8.10;;;5.07;;
17451;SDS011;8843;48.838;9.324;2022-12-07T01:02:15;7.03;;;5.00;;
17451;SDS011;8843;48.838;9.324;2022-12-07T01:04:42;6.90;;;5.40;;
17451;SDS011;8843;48.838;9.324;2022-12-07T01:07:10;7.80;;;5.93;;
17451;SDS011;8843;48.838;9.324;2022-12-07T01:09:37;8.13;;;6.20;;
17451;SDS011;8843;48.838;9.324;2022-12-07T01:12:04;7.30;;;4.97;;
17451;SDS011;8843;48.838;9.324;2022-12-07T01:14:31;6.87;;;5.33;;
17451;SDS011;8843;48.838;9.324;2022-12-07T01:16:58;7.50;;;4.47;;
17451;SDS011;8843;48.838;9.324;2022-12-07T01:19:25;9.13;;;5.80;;
17451;SDS011;8843;48.838;9.324;2022-12-07T01:21:52;7.10;;;5.40;;
17451;SDS011;8843;48.838;9.324;2022-12-07T01:24:20;7.33;;;4.80;;
17451;SDS011;8843;48.838;9.324;2022-12-07T01:26:48;5.20;;;4.70;;
17451;SDS011;8843;48.838;9.324;2022-12-07T01:29:15;5.73;;;4.50;;
17451;SDS011;8843;48.838;9.324;2022-12-07T01:31:42;5.60;;;4.83;;
17451;SDS011;8843;48.838;9.324;2022-12-07T01:34:09;6.87;;;5.30;;
17451;SDS011;8843;48.838;9.324;2022-12-07T01:36:36;6.87;;;5.27;;
17451;SDS011;8843;48.838;9.324;2022-12-07T01:39:03;6.80;;;5.80;;
17451;SDS011;8843;48.838;9.324;2022-12-07T01:41:34;8.77;;;5.80;;
17451;SDS011;8843;48.838;9.324;2022-12-07T01:44:09;6.80;;;5.07;;
17451;SDS011;8843;48.838;9.324;2022-12-07T01:46:38;6.80;;;4.60;;
17451;SDS011;8843;48.838;9.324;2022-12-07T01:49:08;6.73;;;5.37;;
17451;SDS011;8843;48.838;9.324;2022-12-07T01:51:38;9.00;;;5.63;;
17451;SDS011;8843;48.838;9.324;2022-12-07T01:54:08;8.20;;;5.20;;
17451;SDS011;8843;48.838;9.324;2022-12-07T01:56:39;8.70;;;5.20;;
17451;SDS011;8843;48.838;9.324;2022-12-07T01:59:08;6.80;;;5.20;;
17451;SDS011;8843;48.838;9.324;2022-12-07T02:01:35;6.73;;;5.10;;
17451;SDS011;8843;48.838;9.324;2022-12-07T02:04:02;7.73;;;5.43;;
17451;SDS011;8843;48.838;9.324;2022-12-07T02:06:29;6.40;;;4.67;;
17451;SDS011;8843;48.838;9.324;2022-12-07T02:08:56;6.30;;;4.97;;
17451;SDS011;8843;48.838;9.324;2022-12-07T02:11:23;7.60;;;5.57;;
17451;SDS011;8843;48.838;9.324;2022-12-07T02:13:52;5.90;;;4.73;;
17451;SDS011;8843;48.838;9.324;2022-12-07T02:16:22;5.00;;;4.13;;
17451;SDS011;8843;48.838;9.324;2022-12-07T02:18:59;6.93;;;5.77;;
17451;SDS011;8843;48.838;9.324;2022-12-07T02:21:44;6.73;;;5.63;;
17451;SDS011;8843;48.838;9.324;2022-12-07T02:24:25;6.97;;;6.03;;
17451;SDS011;8843;48.838;9.324;2022-12-07T02:27:11;7.27;;;5.77;;
17451;SDS011;8843;48.838;9.324;2022-12-07T02:30:04;6.43;;;5.20;;
17451;SDS011;8843;48.838;9.324;2022-12-07T02:32:38;6.90;;;5.53;;
17451;SDS011;8843;48.838;9.324;2022-12-07T02:35:10;8.63;;;5.63;;
17451;SDS011;8843;48.838;9.324;2022-12-07T02:37:42;5.83;;;4.93;;
17451;SDS011;8843;48.838;9.324;2022-12-07T02:40:17;6.70;;;6.00;;
17451;SDS011;8843;48.838;9.324;2022-12-07T02:42:46;6.43;;;4.97;;
17451;SDS011;8843;48.838;9.324;2022-12-07T02:45:20;8.23;;;6.23;;
17451;SDS011;8843;48.838;9.324;2022-12-07T02:47:49;6.73;;;5.37;;
17451;SDS011;8843;48.838;9.324;2022-12-07T02:50:19;9.03;;;5.87;;
17451;SDS011;8843;48.838;9.324;2022-12-07T02:52:46;7.47;;;5.73;;
17451;SDS011;8843;48.838;9.324;2022-12-07T02:55:14;7.33;;;5.97;;
17451;SDS011;8843;48.838;9.324;2022-12-07T02:57:48;7.03;;;5.90;;
17451;SDS011;8843;48.838;9.324;2022-12-07T03:00:24;7.63;;;5.40;;
17451;SDS011;8843;48.838;9.324;2022-12-07T03:02:53;11.03;;;6.37;;
17451;SDS011;8843;48.838;9.324;2022-12-07T03:05:31;7.50;;;5.47;;
17451;SDS011;8843;48.838;9.324;2022-12-07T03:08:11;7.73;;;5.63;;
17451;SDS011;8843;48.838;9.324;2022-12-07T03:10:45;7.77;;;6.17;;
17451;SDS011;8843;48.838;9.324;2022-12-07T03:13:18;8.43;;;5.90;;
17451;SDS011;8843;48.838;9.324;2022-12-07T03:15:54;9.23;;;5.07;;
17451;SDS011;8843;48.838;9.324;2022-12-07T03:18:28;7.83;;;6.10;;
17451;SDS011;8843;48.838;9.324;2022-12-07T03:20:57;6.47;;;5.30;;
17451;SDS011;8843;48.838;9.324;2022-12-07T03:23:28;6.97;;;5.90;;
17451;SDS011;8843;48.838;9.324;2022-12-07T03:25:58;8.03;;;5.93;;
17451;SDS011;8843;48.838;9.324;2022-12-07T03:28:27;6.53;;;5.67;;
17451;SDS011;8843;48.838;9.324;2022-12-07T03:31:01;7.40;;;5.63;;
17451;SDS011;8843;48.838;9.324;2022-12-07T03:33:31;9.23;;;6.37;;
17451;SDS011;8843;48.838;9.324;2022-12-07T03:36:04;7.70;;;5.97;;
17451;SDS011;8843;48.838;9.324;2022-12-07T03:38:35;6.30;;;5.10;;
17451;SDS011;8843;48.838;9.324;2022-12-07T03:41:08;8.20;;;5.77;;
17451;SDS011;8843;48.838;9.324;2022-12-07T03:43:37;6.77;;;5.37;;
17451;SDS011;8843;48.838;9.324;2022-12-07T03:46:09;7.40;;;5.60;;
17451;SDS011;8843;48.838;9.324;2022-12-07T03:48:45;8.40;;;5.97;;
17451;SDS011;8843;48.838;9.324;2022-12-07T03:51:21;7.37;;;5.63;;
17451;SDS011;8843;48.838;9.324;2022-12-07T03:53:53;7.33;;;5.77;;
17451;SDS011;8843;48.838;9.324;2022-12-07T03:56:25;6.40;;;5.47;;
17451;SDS011;8843;48.838;9.324;2022-12-07T03:58:54;7.57;;;5.63;;
17451;SDS011;8843;48.838;9.324;2022-12-07T04:01:23;6.97;;;4.93;;
17451;SDS011;8843;48.838;9.324;2022-12-07T04:03:50;7.30;;;5.37;;
17451;SDS011;8843;48.838;9.324;2022-12-07T04:06:17;7.30;;;5.80;;
17451;SDS011;8843;48.838;9.324;2022-12-07T04:08:44;7.37;;;5.37;;
17451;SDS011;8843;48.838;9.324;2022-12-07T04:11:11;7.13;;;5.80;;
17451;SDS011;8843;48.838;9.324;2022-12-07T04:13:38;5.87;;;4.80;;
17451;SDS011;8843;48.838;9.324;2022-12-07T04:16:18;7.17;;;5.37;;
17451;SDS011;8843;48.838;9.324;2022-12-07T04:18:46;8.57;;;4.97;;
17451;SDS011;8843;48.838;9.324;2022-12-07T04:21:13;6.43;;;4.87;;
17451;SDS011;8843;48.838;9.324;2022-12-07T04:23:40;5.97;;;4.67;;
17451;SDS011;8843;48.838;9.324;2022-12-07T04:26:07;5.60;;;5.00;;
17451;SDS011;8843;48.838;9.324;2022-12-07T04:28:34;6.93;;;5.20;;
17451;SDS011;8843;48.838;9.324;2022-12-07T04:31:01;7.43;;;5.53;;
17451;SDS011;8843;48.838;9.324;2022-12-07T04:33:27;7.50;;;5.17;;
17451;SDS011;8843;48.838;9.324;2022-12-07T04:35:56;5.67;;;5.00;;
17451;SDS011;8843;48.838;9.324;2022-12-07T04:38:23;8.50;;;6.00;;
17451;SDS011;8843;48.838;9.324;2022-12-07T04:40:49;6.83;;;5.20;;
17451;SDS011;8843;48.838;9.324;2022-12-07T04:43:16;6.90;;;5.80;;
17451;SDS011;8843;48.838;9.324;2022-12-07T04:45:45;7.33;;;5.53;;
17451;SDS011;8843;48.838;9.324;2022-12-07T04:48:13;7.70;;;5.60;;
17451;SDS011;8843;48.838;9.324;2022-12-07T04:50:40;8.60;;;6.33;;
17451;SDS011;8843;48.838;9.324;2022-12-07T04:53:08;7.53;;;5.63;;
17451;SDS011;8843;48.838;9.324;2022-12-07T04:55:35;6.90;;;5.87;;
17451;SDS011;8843;48.838;9.324;2022-12-07T04:58:02;8.23;;;5.77;;
17451;SDS011;8843;48.838;9.324;2022-12-07T05:00:29;7.37;;;6.10;;
17451;SDS011;8843;48.838;9.324;2022-12-07T05:02:56;7.83;;;6.27;;
17451;SDS011;8843;48.838;9.324;2022-12-07T05:05:23;9.63;;;6.93;;
17451;SDS011;8843;48.838;9.324;2022-12-07T05:07:50;6.70;;;5.23;;
17451;SDS011;8843;48.838;9.324;2022-12-07T05:10:18;6.87;;;5.73;;
17451;SDS011;8843;48.838;9.324;2022-12-07T05:12:45;8.10;;;5.43;;
17451;SDS011;8843;48.838;9.324;2022-12-07T05:15:12;5.70;;;5.07;;
17451;SDS011;8843;48.838;9.324;2022-12-07T05:17:39;8.70;;;5.70;;
17451;SDS011;8843;48.838;9.324;2022-12-07T05:20:07;9.17;;;6.37;;
17451;SDS011;8843;48.838;9.324;2022-12-07T05:22:34;6.70;;;5.00;;
17451;SDS011;8843;48.838;9.324;2022-12-07T05:25:01;8.87;;;5.50;;
17451;SDS011;8843;48.838;9.324;2022-12-07T05:27:30;7.33;;;5.37;;
17451;SDS011;8843;48.838;9.324;2022-12-07T05:29:56;7.63;;;5.50;;
17451;SDS011;8843;48.838;9.324;2022-12-07T05:32:23;8.30;;;5.90;;
17451;SDS011;8843;48.838;9.324;2022-12-07T05:34:50;8.17;;;6.00;;
17451;SDS011;8843;48.838;9.324;2022-12-07T05:37:19;7.20;;;5.60;;
17451;SDS011;8843;48.838;9.324;2022-12-07T05:39:46;6.93;;;5.43;;
17451;SDS011;8843;48.838;9.324;2022-12-07T05:42:13;6.43;;;5.17;;
17451;SDS011;8843;48.838;9.324;2022-12-07T05:44:41;6.83;;;5.23;;
17451;SDS011;8843;48.838;9.324;2022-12-07T05:47:09;8.63;;;6.27;;
17451;SDS011;8843;48.838;9.324;2022-12-07T05:49:36;6.67;;;5.20;;
17451;SDS011;8843;48.838;9.324;2022-12-07T05:52:03;7.50;;;6.00;;
17451;SDS011;8843;48.838;9.324;2022-12-07T05:54:30;8.43;;;5.80;;
17451;SDS011;8843;48.838;9.324;2022-12-07T05:56:57;6.67;;;5.07;;
17451;SDS011;8843;48.838;9.324;2022-12-07T05:59:24;12.57;;;6.00;;
17451;SDS011;8843;48.838;9.324;2022-12-07T06:01:54;8.63;;;5.50;;
17451;SDS011;8843;48.838;9.324;2022-12-07T06:04:23;9.37;;;6.73;;
17451;SDS011;8843;48.838;9.324;2022-12-07T06:06:51;8.60;;;5.93;;
17451;SDS011;8843;48.838;9.324;2022-12-07T06:09:18;7.67;;;5.63;;
17451;SDS011;8843;48.838;9.324;2022-12-07T06:11:46;7.67;;;5.93;;
17451;SDS011;8843;48.838;9.324;2022-12-07T06:14:31;9.07;;;6.00;;
17451;SDS011;8843;48.838;9.324;2022-12-07T06:16:59;8.50;;;5.30;;
17451;SDS011;8843;48.838;9.324;2022-12-07T06:19:26;7.07;;;5.53;;
17451;SDS011;8843;48.838;9.324;2022-12-07T06:21:53;7.17;;;6.07;;
17451;SDS011;8843;48.838;9.324;2022-12-07T06:24:21;9.73;;;5.77;;
17451;SDS011;8843;48.838;9.324;2022-12-07T06:26:48;8.27;;;5.33;;
17451;SDS011;8843;48.838;9.324;2022-12-07T06:29:15;8.93;;;6.87;;
17451;SDS011;8843;48.838;9.324;2022-12-07T06:31:43;8.97;;;6.67;;
17451;SDS011;8843;48.838;9.324;2022-12-07T06:34:12;7.40;;;5.57;;
17451;SDS011;8843;48.838;9.324;2022-12-07T06:36:41;8.40;;;5.80;;
17451;SDS011;8843;48.838;9.324;2022-12-07T06:39:08;7.87;;;6.20;;
17451;SDS011;8843;48.838;9.324;2022-12-07T06:41:36;9.63;;;6.20;;
17451;SDS011;8843;48.838;9.324;2022-12-07T06:44:03;9.07;;;6.50;;
17451;SDS011;8843;48.838;9.324;2022-12-07T06:46:31;7.60;;;5.43;;
17451;SDS011;8843;48.838;9.324;2022-12-07T06:48:58;11.63;;;5.83;;
17451;SDS011;8843;48.838;9.324;2022-12-07T06:51:26;9.83;;;6.80;;
17451;SDS011;8843;48.838;9.324;2022-12-07T06:53:53;12.50;;;6.40;;
17451;SDS011;8843;48.838;9.324;2022-12-07T06:56:20;9.37;;;6.70;;
17451;SDS011;8843;48.838;9.324;2022-12-07T06:58:47;11.80;;;6.97;;
17451;SDS011;8843;48.838;9.324;2022-12-07T07:01:16;9.17;;;7.37;;
17451;SDS011;8843;48.838;9.324;2022-12-07T07:03:44;9.90;;;7.70;;
17451;SDS011;8843;48.838;9.324;2022-12-07T07:06:12;9.90;;;6.50;;
17451;SDS011;8843;48.838;9.324;2022-12-07T07:08:41;8.30;;;6.80;;
17451;SDS011;8843;48.838;9.324;2022-12-07T07:11:08;10.10;;;6.00;;
17451;SDS011;8843;48.838;9.324;2022-12-07T07:13:35;8.70;;;6.40;;
17451;SDS011;8843;48.838;9.324;2022-12-07T07:16:03;10.47;;;7.40;;
17451;SDS011;8843;48.838;9.324;2022-12-07T07:18:30;10.40;;;6.50;;
17451;SDS011;8843;48.838;9.324;2022-12-07T07:20:58;11.20;;;6.80;;
17451;SDS011;8843;48.838;9.324;2022-12-07T07:23:26;12.67;;;7.23;;
17451;SDS011;8843;48.838;9.324;2022-12-07T07:25:54;11.53;;;7.47;;
17451;SDS011;8843;48.838;9.324;2022-12-07T07:28:21;10.63;;;6.60;;
17451;SDS011;8843;48.838;9.324;2022-12-07T07:30:48;11.77;;;7.27;;
17451;SDS011;8843;48.838;9.324;2022-12-07T07:33:15;9.27;;;6.13;;
17451;SDS011;8843;48.838;9.324;2022-12-07T07:35:42;12.40;;;7.17;;
17451;SDS011;8843;48.838;9.324;2022-12-07T07:38:09;8.70;;;6.37;;
17451;SDS011;8843;48.838;9.324;2022-12-07T07:40:36;8.93;;;6.97;;
17451;SDS011;8843;48.838;9.324;2022-12-07T07:43:04;11.40;;;6.93;;
17451;SDS011;8843;48.838;9.324;2022-12-07T07:45:31;8.43;;;6.73;;
17451;SDS011;8843;48.838;9.324;2022-12-07T07:47:58;10.40;;;7.33;;
17451;SDS011;8843;48.838;9.324;2022-12-07T07:50:25;9.43;;;6.63;;
17451;SDS011;8843;48.838;9.324;2022-12-07T07:52:52;10.87;;;7.00;;
17451;SDS011;8843;48.838;9.324;2022-12-07T07:55:19;9.07;;;6.43;;
17451;SDS011;8843;48.838;9.324;2022-12-07T07:57:45;10.23;;;6.83;;
17451;SDS011;8843;48.838;9.324;2022-12-07T08:00:14;9.30;;;6.80;;
17451;SDS011;8843;48.838;9.324;2022-12-07T08:02:42;10.27;;;6.97;;
17451;SDS011;8843;48.838;9.324;2022-12-07T08:05:10;10.73;;;6.60;;
17451;SDS011;8843;48.838;9.324;2022-12-07T08:07:37;8.40;;;7.00;;
17451;SDS011;8843;48.838;9.324;2022-12-07T08:10:05;9.50;;;6.53;;
17451;SDS011;8843;48.838;9.324;2022-12-07T08:12:35;10.47;;;6.53;;
17451;SDS011;8843;48.838;9.324;2022-12-07T08:15:25;9.80;;;7.03;;
17451;SDS011;8843;48.838;9.324;2022-12-07T08:17:52;7.83;;;6.23;;
17451;SDS011;8843;48.838;9.324;2022-12-07T08:20:19;11.03;;;6.77;;
17451;SDS011;8843;48.838;9.324;2022-12-07T08:22:47;8.63;;;6.50;;
17451;SDS011;8843;48.838;9.324;2022-12-07T08:25:14;9.07;;;6.60;;
17451;SDS011;8843;48.838;9.324;2022-12-07T08:27:41;8.17;;;6.40;;
17451;SDS011;8843;48.838;9.324;2022-12-07T08:30:08;8.27;;;5.90;;
17451;SDS011;8843;48.838;9.324;2022-12-07T08:32:36;8.10;;;6.30;;
17451;SDS011;8843;48.838;9.324;2022-12-07T08:35:03;7.17;;;5.97;;
17451;SDS011;8843;48.838;9.324;2022-12-07T08:37:31;8.07;;;6.03;;
17451;SDS011;8843;48.838;9.324;2022-12-07T08:39:58;10.10;;;6.63;;
17451;SDS011;8843;48.838;9.324;2022-12-07T08:42:25;9.30;;;6.37;;
17451;SDS011;8843;48.838;9.324;2022-12-07T08:44:54;8.20;;;5.57;;
17451;SDS011;8843;48.838;9.324;2022-12-07T08:47:22;11.00;;;6.50;;
17451;SDS011;8843;48.838;9.324;2022-12-07T08:49:52;8.97;;;6.00;;
17451;SDS011;8843;48.838;9.324;2022-12-07T08:52:20;10.23;;;6.27;;
17451;SDS011;8843;48.838;9.324;2022-12-07T08:54:47;8.30;;;6.73;;
17451;SDS011;8843;48.838;9.324;2022-12-07T08:57:14;8.43;;;6.43;;
17451;SDS011;8843;48.838;9.324;2022-12-07T08:59:41;9.07;;;6.90;;
17451;SDS011;8843;48.838;9.324;2022-12-07T09:02:08;8.73;;;5.60;;
17451;SDS011;8843;48.838;9.324;2022-12-07T09:04:35;8.63;;;6.20;;
17451;SDS011;8843;48.838;9.324;2022-12-07T09:07:03;7.50;;;5.50;;
17451;SDS011;8843;48.838;9.324;2022-12-07T09:09:31;9.23;;;6.20;;
17451;SDS011;8843;48.838;9.324;2022-12-07T09:11:58;7.10;;;5.27;;
17451;SDS011;8843;48.838;9.324;2022-12-07T09:14:25;10.37;;;6.57;;
17451;SDS011;8843;48.838;9.324;2022-12-07T09:16:51;8.43;;;6.00;;
17451;SDS011;8843;48.838;9.324;2022-12-07T09:19:18;10.57;;;5.97;;
17451;SDS011;8843;48.838;9.324;2022-12-07T09:21:45;9.53;;;6.23;;
17451;SDS011;8843;48.838;9.324;2022-12-07T09:24:13;7.40;;;5.90;;
17451;SDS011;8843;48.838;9.324;2022-12-07T09:26:40;9.13;;;6.07;;
17451;SDS011;8843;48.838;9.324;2022-12-07T09:29:07;9.30;;;6.03;;
17451;SDS011;8843;48.838;9.324;2022-12-07T09:31:35;8.07;;;6.00;;
17451;SDS011;8843;48.838;9.324;2022-12-07T09:34:03;7.53;;;5.47;;
17451;SDS011;8843;48.838;9.324;2022-12-07T09:36:30;10.30;;;7.43;;
17451;SDS011;8843;48.838;9.324;2022-12-07T09:38:57;8.27;;;5.80;;
17451;SDS011;8843;48.838;9.324;2022-12-07T09:41:27;9.00;;;5.73;;
17451;SDS011;8843;48.838;9.324;2022-12-07T09:43:58;8.33;;;5.70;;
17451;SDS011;8843;48.838;9.324;2022-12-07T09:46:30;8.73;;;5.87;;
17451;SDS011;8843;48.838;9.324;2022-12-07T09:49:01;9.17;;;5.27;;
17451;SDS011;8843;48.838;9.324;2022-12-07T09:51:28;7.00;;;4.90;;
17451;SDS011;8843;48.838;9.324;2022-12-07T09:53:56;8.03;;;5.40;;
17451;SDS011;8843;48.838;9.324;2022-12-07T09:56:25;6.77;;;4.50;;
17451;SDS011;8843;48.838;9.324;2022-12-07T09:58:57;7.03;;;4.83;;
17451;SDS011;8843;48.838;9.324;2022-12-07T10:01:27;5.77;;;4.33;;
17451;SDS011;8843;48.838;9.324;2022-12-07T10:03:58;7.70;;;4.33;;
17451;SDS011;8843;48.838;9.324;2022-12-07T10:06:28;7.23;;;4.20;;
17451;SDS011;8843;48.838;9.324;2022-12-07T10:08:55;6.50;;;3.93;;
17451;SDS011;8843;48.838;9.324;2022-12-07T10:11:22;5.60;;;3.63;;
17451;SDS011;8843;48.838;9.324;2022-12-07T10:13:51;7.67;;;4.13;;
17451;SDS011;8843;48.838;9.324;2022-12-07T10:16:28;8.03;;;3.73;;
17451;SDS011;8843;48.838;9.324;2022-12-07T10:19:17;4.73;;;3.97;;
17451;SDS011;8843;48.838;9.324;2022-12-07T10:21:59;5.80;;;3.70;;
17451;SDS011;8843;48.838;9.324;2022-12-07T10:24:27;4.70;;;3.57;;
17451;SDS011;8843;48.838;9.324;2022-12-07T10:26:55;5.07;;;4.20;;
17451;SDS011;8843;48.838;9.324;2022-12-07T10:29:24;5.53;;;3.87;;
17451;SDS011;8843;48.838;9.324;2022-12-07T10:31:57;4.63;;;3.77;;
17451;SDS011;8843;48.838;9.324;2022-12-07T10:34:26;4.90;;;3.37;;
17451;SDS011;8843;48.838;9.324;2022-12-07T10:37:06;5.50;;;3.57;;
17451;SDS011;8843;48.838;9.324;2022-12-07T10:39:41;4.63;;;3.87;;
17451;SDS011;8843;48.838;9.324;2022-12-07T10:42:15;6.03;;;3.57;;
17451;SDS011;8843;48.838;9.324;2022-12-07T10:44:45;4.67;;;3.80;;
17451;SDS011;8843;48.838;9.324;2022-12-07T10:47:20;5.47;;;3.43;;
17451;SDS011;8843;48.838;9.324;2022-12-07T10:50:07;7.63;;;4.27;;
17451;SDS011;8843;48.838;9.324;2022-12-07T10:53:01;4.47;;;3.37;;
17451;SDS011;8843;48.838;9.324;2022-12-07T10:55:44;4.30;;;2.90;;
17451;SDS011;8843;48.838;9.324;2022-12-07T10:58:30;5.53;;;3.03;;
17451;SDS011;8843;48.838;9.324;2022-12-07T11:01:10;6.80;;;3.80;;
17451;SDS011;8843;48.838;9.324;2022-12-07T11:03:55;7.40;;;3.73;;
17451;SDS011;8843;48.838;9.324;2022-12-07T11:06:39;4.67;;;3.57;;
17451;SDS011;8843;48.838;9.324;2022-12-07T11:09:24;3.97;;;3.20;;
17451;SDS011;8843;48.838;9.324;2022-12-07T11:12:05;4.87;;;3.53;;
17451;SDS011;8843;48.838;9.324;2022-12-07T11:14:41;5.47;;;4.10;;
17451;SDS011;8843;48.838;9.324;2022-12-07T11:17:17;4.93;;;3.40;;
17451;SDS011;8843;48.838;9.324;2022-12-07T11:19:53;4.73;;;3.50;;
17451;SDS011;8843;48.838;9.324;2022-12-07T11:22:30;5.07;;;3.40;;
17451;SDS011;8843;48.838;9.324;2022-12-07T11:25:13;5.80;;;3.70;;
17451;SDS011;8843;48.838;9.324;2022-12-07T11:27:44;6.03;;;3.93;;
17451;SDS011;8843;48.838;9.324;2022-12-07T11:30:16;6.80;;;3.97;;
17451;SDS011;8843;48.838;9.324;2022-12-07T11:33:00;4.27;;;3.47;;
17451;SDS011;8843;48.838;9.324;2022-12-07T11:35:38;5.13;;;3.43;;
17451;SDS011;8843;48.838;9.324;2022-12-07T11:38:13;4.77;;;3.50;;
17451;SDS011;8843;48.838;9.324;2022-12-07T11:40:43;3.67;;;2.77;;
17451;SDS011;8843;48.838;9.324;2022-12-07T11:43:17;6.90;;;3.70;;
17451;SDS011;8843;48.838;9.324;2022-12-07T11:45:49;6.20;;;4.13;;
17451;SDS011;8843;48.838;9.324;2022-12-07T11:48:24;5.67;;;3.73;;
17451;SDS011;8843;48.838;9.324;2022-12-07T11:50:58;7.27;;;4.67;;
17451;SDS011;8843;48.838;9.324;2022-12-07T11:53:28;4.17;;;3.70;;
17451;SDS011;8843;48.838;9.324;2022-12-07T11:56:02;4.47;;;3.73;;
17451;SDS011;8843;48.838;9.324;2022-12-07T11:58:42;4.23;;;3.60;;
17451;SDS011;8843;48.838;9.324;2022-12-07T12:01:18;5.00;;;4.17;;
17451;SDS011;8843;48.838;9.324;2022-12-07T12:03:58;6.40;;;3.83;;
17451;SDS011;8843;48.838;9.324;2022-12-07T12:06:32;5.17;;;4.10;;
17451;SDS011;8843;48.838;9.324;2022-12-07T12:09:01;8.87;;;5.43;;
17451;SDS011;8843;48.838;9.324;2022-12-07T12:11:37;9.97;;;5.30;;
17451;SDS011;8843;48.838;9.324;2022-12-07T12:14:19;5.37;;;4.37;;
17451;SDS011;8843;48.838;9.324;2022-12-07T12:17:02;6.43;;;5.10;;
17451;SDS011;8843;48.838;9.324;2022-12-07T12:19:42;6.50;;;5.50;;
17451;SDS011;8843;48.838;9.324;2022-12-07T12:22:12;6.03;;;4.70;;
17451;SDS011;8843;48.838;9.324;2022-12-07T12:24:42;7.13;;;5.30;;
17451;SDS011;8843;48.838;9.324;2022-12-07T12:27:23;6.07;;;4.97;;
17451;SDS011;8843;48.838;9.324;2022-12-07T12:29:55;7.83;;;4.97;;
17451;SDS011;8843;48.838;9.324;2022-12-07T12:32:28;7.63;;;5.73;;
17451;SDS011;8843;48.838;9.324;2022-12-07T12:35:19;6.97;;;5.27;;
17451;SDS011;8843;48.838;9.324;2022-12-07T12:37:53;7.73;;;5.67;;
17451;SDS011;8843;48.838;9.324;2022-12-07T12:40:37;7.60;;;5.17;;
17451;SDS011;8843;48.838;9.324;2022-12-07T12:49:23;7.53;;;5.33;;
17451;SDS011;8843;48.838;9.324;2022-12-07T12:52:45;6.73;;;5.30;;
17451;SDS011;8843;48.838;9.324;2022-12-07T12:55:18;7.40;;;4.83;;
17451;SDS011;8843;48.838;9.324;2022-12-07T12:57:47;6.07;;;4.90;;
17451;SDS011;8843;48.838;9.324;2022-12-07T13:00:46;7.43;;;6.27;;
17451;SDS011;8843;48.838;9.324;2022-12-07T13:03:20;7.83;;;4.83;;
17451;SDS011;8843;48.838;9.324;2022-12-07T13:05:57;7.07;;;5.70;;
17451;SDS011;8843;48.838;9.324;2022-12-07T13:08:45;7.73;;;5.10;;
17451;SDS011;8843;48.838;9.324;2022-12-07T13:11:16;7.13;;;5.07;;
17451;SDS011;8843;48.838;9.324;2022-12-07T13:13:46;7.33;;;5.07;;
17451;SDS011;8843;48.838;9.324;2022-12-07T13:25:26;8.87;;;4.90;;
17451;SDS011;8843;48.838;9.324;2022-12-07T13:28:00;8.13;;;5.30;;
17451;SDS011;8843;48.838;9.324;2022-12-07T13:30:34;10.47;;;6.07;;
17451;SDS011;8843;48.838;9.324;2022-12-07T13:33:10;10.33;;;5.30;;
17451;SDS011;8843;48.838;9.324;2022-12-07T13:35:38;8.87;;;5.50;;
17451;SDS011;8843;48.838;9.324;2022-12-07T13:38:14;6.07;;;4.73;;
17451;SDS011;8843;48.838;9.324;2022-12-07T13:41:00;7.53;;;5.07;;
17451;SDS011;8843;48.838;9.324;2022-12-07T13:43:28;7.27;;;5.97;;
17451;SDS011;8843;48.838;9.324;2022-12-07T13:45:56;8.17;;;6.00;;
17451;SDS011;8843;48.838;9.324;2022-12-07T13:48:28;8.97;;;5.23;;
17451;SDS011;8843;48.838;9.324;2022-12-07T13:50:58;6.83;;;4.90;;
17451;SDS011;8843;48.838;9.324;2022-12-07T13:53:27;14.47;;;7.23;;
17451;SDS011;8843;48.838;9.324;2022-12-07T13:55:55;10.27;;;4.93;;
17451;SDS011;8843;48.838;9.324;2022-12-07T13:58:24;11.70;;;5.77;;
17451;SDS011;8843;48.838;9.324;2022-12-07T14:00:52;8.57;;;6.00;;
17451;SDS011;8843;48.838;9.324;2022-12-07T14:03:23;9.03;;;6.63;;
17451;SDS011;8843;48.838;9.324;2022-12-07T14:06:03;9.93;;;5.67;;
17451;SDS011;8843;48.838;9.324;2022-12-07T14:08:40;7.20;;;5.23;;
17451;SDS011;8843;48.838;9.324;2022-12-07T14:11:07;8.43;;;6.17;;
17451;SDS011;8843;48.838;9.324;2022-12-07T14:13:44;10.17;;;5.53;;
17451;SDS011;8843;48.838;9.324;2022-12-07T14:16:20;8.27;;;6.07;;
17451;SDS011;8843;48.838;9.324;2022-12-07T14:18:50;8.37;;;5.83;;
17451;SDS011;8843;48.838;9.324;2022-12-07T14:21:18;7.73;;;5.97;;
17451;SDS011;8843;48.838;9.324;2022-12-07T14:24:01;10.67;;;6.07;;
17451;SDS011;8843;48.838;9.324;2022-12-07T14:26:41;8.23;;;5.73;;
17451;SDS011;8843;48.838;9.324;2022-12-07T14:32:14;11.33;;;6.97;;
17451;SDS011;8843;48.838;9.324;2022-12-07T14:34:55;10.00;;;6.97;;
17451;SDS011;8843;48.838;9.324;2022-12-07T14:37:23;9.27;;;6.70;;
17451;SDS011;8843;48.838;9.324;2022-12-07T14:39:50;9.07;;;6.50;;
17451;SDS011;8843;48.838;9.324;2022-12-07T14:42:17;9.03;;;6.50;;
17451;SDS011;8843;48.838;9.324;2022-12-07T14:44:46;8.73;;;6.70;;
17451;SDS011;8843;48.838;9.324;2022-12-07T14:47:13;8.50;;;6.07;;
17451;SDS011;8843;48.838;9.324;2022-12-07T14:49:40;9.87;;;6.40;;
17451;SDS011;8843;48.838;9.324;2022-12-07T14:52:09;8.80;;;6.63;;
17451;SDS011;8843;48.838;9.324;2022-12-07T14:54:41;11.70;;;7.10;;
17451;SDS011;8843;48.838;9.324;2022-12-07T14:57:09;9.40;;;5.93;;
17451;SDS011;8843;48.838;9.324;2022-12-07T14:59:36;10.23;;;6.20;;
17451;SDS011;8843;48.838;9.324;2022-12-07T15:02:05;7.10;;;5.40;;
17451;SDS011;8843;48.838;9.324;2022-12-07T15:04:32;16.87;;;7.97;;
17451;SDS011;8843;48.838;9.324;2022-12-07T15:07:00;8.57;;;6.40;;
17451;SDS011;8843;48.838;9.324;2022-12-07T15:09:29;11.03;;;7.40;;
17451;SDS011;8843;48.838;9.324;2022-12-07T15:11:56;11.10;;;6.97;;
17451;SDS011;8843;48.838;9.324;2022-12-07T15:14:23;13.60;;;7.47;;
17451;SDS011;8843;48.838;9.324;2022-12-07T15:16:49;8.77;;;5.70;;
17451;SDS011;8843;48.838;9.324;2022-12-07T15:19:18;11.03;;;7.20;;
17451;SDS011;8843;48.838;9.324;2022-12-07T15:21:48;9.70;;;7.63;;
17451;SDS011;8843;48.838;9.324;2022-12-07T15:24:15;9.87;;;6.50;;
17451;SDS011;8843;48.838;9.324;2022-12-07T15:26:42;11.53;;;6.87;;
17451;SDS011;8843;48.838;9.324;2022-12-07T15:29:09;11.40;;;6.23;;
17451;SDS011;8843;48.838;9.324;2022-12-07T15:31:36;11.27;;;7.03;;
17451;SDS011;8843;48.838;9.324;2022-12-07T15:34:04;12.73;;;8.40;;
17451;SDS011;8843;48.838;9.324;2022-12-07T15:36:32;10.17;;;6.70;;
17451;SDS011;8843;48.838;9.324;2022-12-07T15:39:00;8.77;;;6.50;;